createdAt,value
2023-02-17T00:01:33.359Z,1.85
2023-02-17T00:04:01.822Z,1.87
2023-02-17T00:06:32.395Z,1.89
2023-02-17T00:09:00.761Z,1.89
2023-02-17T00:11:28.969Z,1.88
2023-02-17T00:13:57.224Z,1.87
2023-02-17T00:16:27.194Z,1.86
2023-02-17T00:18:57.861Z,1.85
2023-02-17T00:21:28.280Z,1.85
2023-02-17T00:23:57.972Z,1.85
2023-02-17T00:26:25.733Z,1.84
2023-02-17T00:28:53.704Z,1.84
2023-02-17T00:31:23.573Z,1.84
2023-02-17T00:33:54.383Z,1.85
2023-02-17T00:36:22.277Z,1.85
2023-02-17T00:38:50.185Z,1.86
2023-02-17T00:41:19.311Z,1.86
2023-02-17T00:43:48.193Z,1.86
2023-02-17T00:46:17.713Z,1.85
2023-02-17T00:48:46.652Z,1.85
2023-02-17T00:51:15.655Z,1.85
2023-02-17T00:53:43.967Z,1.85
2023-02-17T00:56:12.692Z,1.85
2023-02-17T00:58:41.656Z,1.86
2023-02-17T01:01:11.443Z,1.86
2023-02-17T01:03:41.051Z,1.87
2023-02-17T01:06:22.287Z,1.89
2023-02-17T01:08:50.774Z,1.90
2023-02-17T01:11:20.882Z,1.92
2023-02-17T01:13:49.096Z,1.93
2023-02-17T01:16:19.666Z,1.93
2023-02-17T01:18:48.124Z,1.94
2023-02-17T01:21:20.731Z,1.93
2023-02-17T01:23:50.203Z,1.91
2023-02-17T01:26:21.829Z,1.91
2023-02-17T01:28:50.967Z,1.90
2023-02-17T01:31:20.126Z,1.91
2023-02-17T01:33:48.414Z,1.91
2023-02-17T01:36:19.249Z,1.92
2023-02-17T01:38:47.627Z,1.92
2023-02-17T01:41:17.643Z,1.92
2023-02-17T01:44:10.620Z,1.92
2023-02-17T01:46:40.359Z,1.94
2023-02-17T01:49:38.558Z,1.95
2023-02-17T01:52:26.843Z,1.98
2023-02-17T01:54:59.974Z,2.01
2023-02-17T01:57:32.439Z,2.05
2023-02-17T02:00:00.842Z,2.06
2023-02-17T02:02:31.143Z,2.07
2023-02-17T02:05:00.525Z,2.10
2023-02-17T02:07:40.959Z,2.12
2023-02-17T02:10:10.678Z,2.14
2023-02-17T02:12:40.951Z,2.15
2023-02-17T02:15:19.456Z,2.17
2023-02-17T02:18:14.516Z,2.20
2023-02-17T02:21:19.824Z,2.22
2023-02-17T02:23:58.159Z,2.24
2023-02-17T02:27:04.237Z,2.26
2023-02-17T02:29:56.692Z,2.28
2023-02-17T02:32:30.197Z,2.29
2023-02-17T02:35:08.250Z,2.30
2023-02-17T02:37:43.547Z,2.32
2023-02-17T02:40:13.531Z,2.32
2023-02-17T02:42:42.317Z,2.33
2023-02-17T02:45:11.103Z,2.33
2023-02-17T02:47:45.184Z,2.35
2023-02-17T02:50:25.171Z,2.37
2023-02-17T02:53:04.768Z,2.39
2023-02-17T02:55:48.970Z,2.40
2023-02-17T02:58:43.105Z,2.41
2023-02-17T03:01:14.314Z,2.45
2023-02-17T03:04:00.919Z,2.47
2023-02-17T03:06:45.527Z,2.50
2023-02-17T03:09:21.019Z,2.52
2023-02-17T03:11:50.445Z,2.53
2023-02-17T03:14:20.975Z,2.54
2023-02-17T03:16:50.766Z,2.55
2023-02-17T03:19:22.584Z,2.54
2023-02-17T03:21:57.284Z,2.54
2023-02-17T03:24:25.624Z,2.53
2023-02-17T03:26:53.396Z,2.52
2023-02-17T03:29:21.229Z,2.50
2023-02-17T03:31:49.271Z,2.48
2023-02-17T03:34:17.518Z,2.47
2023-02-17T03:36:45.825Z,2.45
2023-02-17T03:39:13.600Z,2.45
2023-02-17T03:41:41.428Z,2.44
2023-02-17T03:44:09.254Z,2.44
2023-02-17T03:46:40.657Z,2.45
2023-02-17T03:49:08.868Z,2.47
2023-02-17T03:51:37.218Z,2.48
2023-02-17T03:54:05.192Z,2.51
2023-02-17T03:56:33.155Z,2.53
2023-02-17T03:59:00.978Z,2.54
2023-02-17T04:01:29.303Z,2.54
2023-02-17T04:03:57.791Z,2.57
2023-02-17T04:06:25.725Z,2.60
2023-02-17T04:08:53.598Z,2.61
2023-02-17T04:11:21.364Z,2.62
2023-02-17T04:13:49.155Z,2.62
2023-02-17T04:16:18.326Z,2.61
2023-02-17T04:18:46.878Z,2.61
2023-02-17T04:21:14.784Z,2.60
2023-02-17T04:23:42.633Z,2.58
2023-02-17T04:26:10.389Z,2.57
2023-02-17T04:28:40.920Z,2.55
2023-02-17T04:31:09.420Z,2.55
2023-02-17T04:33:38.073Z,2.54
2023-02-17T04:36:06.507Z,2.51
2023-02-17T04:38:34.916Z,2.48
2023-02-17T04:41:03.308Z,2.46
2023-02-17T04:43:31.631Z,2.45
2023-02-17T04:45:59.453Z,2.45
2023-02-17T04:48:27.238Z,2.45
2023-02-17T04:50:55.018Z,2.46
2023-02-17T04:53:23.289Z,2.46
2023-02-17T04:55:52.960Z,2.46
2023-02-17T04:58:21.261Z,2.46
2023-02-17T05:00:50.436Z,2.48
2023-02-17T05:03:19.485Z,2.48
2023-02-17T05:05:47.396Z,2.50
2023-02-17T05:08:15.256Z,2.51
2023-02-17T05:10:43.068Z,2.52
2023-02-17T05:13:10.852Z,2.54
2023-02-17T05:15:38.754Z,2.55
2023-02-17T05:18:06.590Z,2.57
2023-02-17T05:20:34.373Z,2.60
2023-02-17T05:23:02.143Z,2.62
2023-02-17T05:25:29.948Z,2.65
2023-02-17T05:27:57.730Z,2.67
2023-02-17T05:30:25.817Z,2.67
2023-02-17T05:32:53.863Z,2.67
2023-02-17T05:35:21.914Z,2.69
2023-02-17T05:37:49.702Z,2.71
2023-02-17T05:40:17.563Z,2.70
2023-02-17T05:42:45.399Z,2.70
2023-02-17T05:45:13.275Z,2.70
2023-02-17T05:47:41.026Z,2.69
2023-02-17T05:50:09.028Z,2.70
2023-02-17T05:52:36.847Z,2.70
2023-02-17T05:55:05.115Z,2.69
2023-02-17T05:57:33.159Z,2.70
2023-02-17T06:00:00.937Z,2.70
2023-02-17T06:02:28.847Z,2.69
2023-02-17T06:04:56.767Z,2.69
2023-02-17T06:07:24.748Z,2.70
2023-02-17T06:09:52.500Z,2.72
2023-02-17T06:12:20.282Z,2.73
2023-02-17T06:14:48.602Z,2.76
2023-02-17T06:17:17.072Z,2.80
2023-02-17T06:19:44.842Z,2.81
2023-02-17T06:22:12.585Z,2.84
2023-02-17T06:24:40.322Z,2.88
2023-02-17T06:27:08.096Z,2.91
2023-02-17T06:29:36.393Z,2.94
2023-02-17T06:32:05.040Z,2.99
2023-02-17T06:34:32.847Z,3.05
2023-02-17T06:37:00.649Z,3.12
2023-02-17T06:39:28.405Z,3.19
2023-02-17T06:41:56.180Z,3.26
2023-02-17T06:44:24.428Z,3.31
2023-02-17T06:46:52.852Z,3.37
2023-02-17T06:49:20.620Z,3.43
2023-02-17T06:51:48.433Z,3.48
2023-02-17T06:54:16.712Z,3.54
2023-02-17T06:56:44.492Z,3.60
2023-02-17T06:59:13.010Z,3.66
2023-02-17T07:01:41.274Z,3.72
2023-02-17T07:04:09.068Z,3.75
2023-02-17T07:06:36.893Z,3.80
2023-02-17T07:09:04.682Z,3.84
2023-02-17T07:11:33.014Z,3.90
2023-02-17T07:14:01.520Z,3.96
2023-02-17T07:16:29.989Z,4.01
2023-02-17T07:18:57.783Z,4.07
2023-02-17T07:21:25.622Z,4.12
2023-02-17T07:23:53.423Z,4.18
2023-02-17T07:26:21.171Z,4.27
2023-02-17T07:28:49.521Z,4.35
2023-02-17T07:31:18.539Z,4.42
2023-02-17T07:33:48.232Z,4.47
2023-02-17T07:36:17.757Z,4.52
2023-02-17T07:38:45.668Z,4.55
2023-02-17T07:41:16.457Z,4.57
2023-02-17T07:43:45.827Z,4.58
2023-02-17T07:46:14.824Z,4.58
2023-02-17T07:48:42.958Z,4.58
2023-02-17T07:51:16.949Z,4.59
2023-02-17T07:53:44.917Z,4.62
2023-02-17T07:56:15.493Z,4.65
2023-02-17T07:58:45.764Z,4.68
2023-02-17T08:01:21.041Z,4.74
2023-02-17T08:03:49.658Z,4.79
2023-02-17T08:06:23.598Z,4.83
2023-02-17T08:09:11.689Z,4.85
2023-02-17T08:12:06.433Z,4.86
2023-02-17T08:14:34.308Z,4.84
2023-02-17T08:17:02.699Z,4.80
2023-02-17T08:19:46.544Z,4.77
2023-02-17T08:22:17.647Z,4.74
2023-02-17T08:24:45.611Z,4.74
2023-02-17T08:27:17.352Z,4.75
2023-02-17T08:29:46.597Z,4.78
2023-02-17T08:32:16.626Z,4.83
2023-02-17T08:34:44.644Z,4.86
2023-02-17T08:37:12.933Z,4.92
2023-02-17T08:39:40.697Z,5.00
2023-02-17T08:42:08.569Z,5.05
2023-02-17T08:44:37.794Z,5.08
2023-02-17T08:47:07.243Z,5.11
2023-02-17T08:49:36.013Z,5.15
2023-02-17T08:52:04.204Z,5.19
2023-02-17T08:54:32.720Z,5.21
2023-02-17T08:57:00.597Z,5.24
2023-02-17T08:59:28.942Z,5.26
2023-02-17T09:01:57.875Z,5.29
2023-02-17T09:04:26.143Z,5.34
2023-02-17T09:06:58.546Z,5.39
2023-02-17T09:09:27.476Z,5.43
2023-02-17T09:11:57.736Z,5.46
2023-02-17T09:14:25.995Z,5.48
2023-02-17T09:16:57.539Z,5.50
2023-02-17T09:19:31.581Z,5.55
2023-02-17T09:21:59.398Z,5.59
2023-02-17T09:24:27.228Z,5.65
2023-02-17T09:26:55.198Z,5.73
2023-02-17T09:29:23.100Z,5.80
2023-02-17T09:31:51.657Z,5.88
2023-02-17T09:34:20.021Z,5.97
2023-02-17T09:36:48.169Z,6.08
2023-02-17T09:39:16.687Z,6.16
2023-02-17T09:41:55.418Z,6.22
2023-02-17T09:44:26.811Z,6.30
2023-02-17T09:47:03.140Z,6.38
2023-02-17T09:49:43.348Z,6.46
2023-02-17T09:52:16.886Z,6.50
2023-02-17T09:55:04.290Z,6.53
2023-02-17T09:58:02.414Z,6.56
2023-02-17T10:00:39.739Z,6.59
2023-02-17T10:03:31.302Z,6.63
2023-02-17T10:06:32.902Z,6.66
2023-02-17T10:09:14.038Z,6.75
2023-02-17T10:12:00.899Z,6.88
2023-02-17T10:14:43.915Z,7.04
2023-02-17T10:17:47.598Z,7.17
2023-02-17T10:20:18.151Z,7.30
2023-02-17T10:22:51.377Z,7.43
2023-02-17T10:25:33.834Z,7.56
2023-02-17T10:28:22.094Z,7.70
2023-02-17T10:31:04.271Z,7.83
2023-02-17T10:33:48.207Z,7.88
2023-02-17T10:36:18.973Z,7.94
2023-02-17T10:38:53.166Z,7.97
2023-02-17T10:41:27.208Z,8.02
2023-02-17T10:43:55.254Z,8.04
2023-02-17T10:46:31.673Z,8.02
2023-02-17T10:49:00.140Z,8.04
2023-02-17T10:51:31.215Z,8.09
2023-02-17T10:54:19.746Z,8.13
2023-02-17T10:56:52.304Z,8.20
2023-02-17T10:59:41.715Z,8.29
2023-02-17T11:02:17.812Z,8.39
2023-02-17T11:04:49.793Z,8.47
2023-02-17T11:07:22.522Z,8.53
2023-02-17T11:09:53.627Z,8.57
2023-02-17T11:12:26.878Z,8.61
2023-02-17T11:14:56.484Z,8.59
2023-02-17T11:17:45.231Z,8.55
2023-02-17T11:20:13.288Z,8.54
2023-02-17T11:22:47.639Z,8.52
2023-02-17T11:25:37.871Z,8.52
2023-02-17T11:28:11.321Z,8.52
2023-02-17T11:30:41.723Z,8.58
2023-02-17T11:33:15.523Z,8.62
2023-02-17T11:35:54.545Z,8.65
2023-02-17T11:38:25.937Z,8.66
2023-02-17T11:41:07.018Z,8.65
2023-02-17T11:43:36.206Z,8.60
2023-02-17T11:46:36.898Z,8.54
2023-02-17T11:49:35.192Z,8.48
2023-02-17T11:52:23.990Z,8.48
2023-02-17T11:55:19.808Z,8.43
2023-02-17T11:57:59.429Z,8.42
2023-02-17T12:00:54.492Z,8.41
2023-02-17T12:03:28.479Z,8.32
2023-02-17T12:06:13.904Z,8.25
2023-02-17T12:08:51.316Z,8.17
2023-02-17T12:11:32.292Z,8.09
2023-02-17T12:14:06.273Z,8.02
2023-02-17T12:16:52.938Z,7.96
2023-02-17T12:19:30.385Z,7.92
2023-02-17T12:22:22.603Z,7.83
2023-02-17T12:25:04.397Z,7.73
2023-02-17T12:28:10.920Z,7.62
2023-02-17T12:30:39.623Z,7.47
2023-02-17T12:33:35.146Z,7.37
2023-02-17T12:36:08.572Z,7.27
2023-02-17T12:38:49.854Z,7.22
2023-02-17T12:41:27.574Z,7.18
2023-02-17T12:44:00.358Z,7.14
2023-02-17T12:46:43.014Z,7.13
2023-02-17T12:49:20.250Z,7.09
2023-02-17T12:51:57.999Z,7.03
2023-02-17T12:54:38.642Z,6.97
2023-02-17T12:57:06.369Z,6.94
2023-02-17T12:59:40.359Z,6.90
2023-02-17T13:02:17.300Z,6.89
2023-02-17T13:04:49.353Z,6.93
2023-02-17T13:07:38.801Z,7.00
2023-02-17T13:10:08.101Z,7.06
2023-02-17T13:12:40.738Z,7.11
2023-02-17T13:15:46.049Z,7.17
2023-02-17T13:18:35.197Z,7.16
2023-02-17T13:21:33.704Z,7.15
2023-02-17T13:24:30.688Z,7.12
2023-02-17T13:27:10.637Z,7.08
2023-02-17T13:29:39.280Z,7.02
2023-02-17T13:32:12.364Z,6.98
2023-02-17T13:34:43.429Z,6.91
2023-02-17T13:37:33.368Z,6.85
2023-02-17T13:40:23.422Z,6.82
2023-02-17T13:42:54.564Z,6.79
2023-02-17T13:45:30.925Z,6.72
2023-02-17T13:48:01.439Z,6.66
2023-02-17T13:50:29.352Z,6.58
2023-02-17T13:53:00.405Z,6.56
2023-02-17T13:55:28.442Z,6.52
2023-02-17T13:57:59.367Z,6.50
2023-02-17T14:00:28.949Z,6.48
2023-02-17T14:03:19.223Z,6.47
2023-02-17T14:05:49.412Z,6.46
2023-02-17T14:08:23.749Z,6.46
2023-02-17T14:10:52.282Z,6.43
2023-02-17T14:13:20.508Z,6.43
2023-02-17T14:16:00.266Z,6.41
2023-02-17T14:18:36.807Z,6.37
2023-02-17T14:21:11.826Z,6.35
2023-02-17T14:23:49.175Z,6.35
2023-02-17T14:26:28.988Z,6.33
2023-02-17T14:29:05.137Z,6.33
2023-02-17T14:31:42.212Z,6.33
2023-02-17T14:34:37.954Z,6.34
2023-02-17T14:37:08.780Z,6.34
2023-02-17T14:39:37.209Z,6.33
2023-02-17T14:42:05.818Z,6.31
2023-02-17T14:44:34.270Z,6.28
2023-02-17T14:47:02.610Z,6.24
2023-02-17T14:49:30.474Z,6.20
2023-02-17T14:51:58.697Z,6.15
2023-02-17T14:54:30.373Z,6.10
2023-02-17T14:57:12.593Z,6.04
2023-02-17T14:59:40.904Z,6.00
2023-02-17T15:02:18.290Z,5.97
2023-02-17T15:04:47.388Z,5.94
2023-02-17T15:07:18.276Z,5.89
2023-02-17T15:09:48.536Z,5.86
2023-02-17T15:12:19.752Z,5.84
2023-02-17T15:14:48.507Z,5.81
2023-02-17T15:17:16.566Z,5.78
2023-02-17T15:19:44.996Z,5.74
2023-02-17T15:22:14.420Z,5.70
2023-02-17T15:24:42.758Z,5.66
2023-02-17T15:27:14.749Z,5.60
2023-02-17T15:29:43.383Z,5.57
2023-02-17T15:32:20.177Z,5.53
2023-02-17T15:34:48.534Z,5.50
2023-02-17T15:37:16.258Z,5.48
2023-02-17T15:39:44.967Z,5.47
2023-02-17T15:42:14.787Z,5.42
2023-02-17T15:44:47.757Z,5.38
2023-02-17T15:47:20.687Z,5.37
2023-02-17T15:49:48.519Z,5.34
2023-02-17T15:52:17.061Z,5.33
2023-02-17T15:54:45.503Z,5.32
2023-02-17T15:57:28.751Z,5.30
2023-02-17T16:00:00.618Z,5.29
2023-02-17T16:02:29.386Z,5.29
2023-02-17T16:04:57.336Z,5.26
2023-02-17T16:07:26.538Z,5.24
2023-02-17T16:09:56.000Z,5.22
2023-02-17T16:12:27.423Z,5.21
2023-02-17T16:14:56.910Z,5.20
2023-02-17T16:17:26.581Z,5.19
2023-02-17T16:19:56.592Z,5.17
2023-02-17T16:22:24.460Z,5.17
2023-02-17T16:24:52.342Z,5.17
2023-02-17T16:27:20.512Z,5.17
2023-02-17T16:29:49.215Z,5.16
2023-02-17T16:32:19.916Z,5.17
2023-02-17T16:34:51.204Z,5.16
2023-02-17T16:37:19.567Z,5.14
2023-02-17T16:39:47.518Z,5.14
